sensor_id;sensor_type;location;lat;lon;timestamp;temperature;humidity
38265;DHT22;24062;47.480;8.768;2023-04-03T00:01:42;7.60;75.00
38265;DHT22;24062;47.480;8.768;2023-04-03T00:04:09;7.60;74.90
38265;DHT22;24062;47.480;8.768;2023-04-03T00:06:36;7.50;74.90
38265;DHT22;24062;47.480;8.768;2023-04-03T00:09:04;7.60;75.30
38265;DHT22;24062;47.480;8.768;2023-04-03T00:11:31;7.60;74.90
38265;DHT22;24062;47.480;8.768;2023-04-03T00:13:58;7.60;75.10
38265;DHT22;24062;47.480;8.768;2023-04-03T00:16:25;7.60;75.10
38265;DHT22;24062;47.480;8.768;2023-04-03T00:18:52;7.50;74.80
38265;DHT22;24062;47.480;8.768;2023-04-03T00:21:19;7.50;75.00
38265;DHT22;24062;47.480;8.768;2023-04-03T00:23:46;7.40;75.00
38265;DHT22;24062;47.480;8.768;2023-04-03T00:26:14;7.40;75.40
38265;DHT22;24062;47.480;8.768;2023-04-03T00:28:41;7.30;75.40
38265;DHT22;24062;47.480;8.768;2023-04-03T00:31:08;7.20;75.80
38265;DHT22;24062;47.480;8.768;2023-04-03T00:33:35;7.30;76.00
38265;DHT22;24062;47.480;8.768;2023-04-03T00:36:06;7.20;75.80
38265;DHT22;24062;47.480;8.768;2023-04-03T00:38:33;7.10;76.20
38265;DHT22;24062;47.480;8.768;2023-04-03T00:41:00;7.10;76.20
38265;DHT22;24062;47.480;8.768;2023-04-03T00:43:28;7.00;76.40
38265;DHT22;24062;47.480;8.768;2023-04-03T00:45:56;6.90;76.20
38265;DHT22;24062;47.480;8.768;2023-04-03T00:48:28;6.90;76.30
38265;DHT22;24062;47.480;8.768;2023-04-03T00:50:56;6.80;76.40
38265;DHT22;24062;47.480;8.768;2023-04-03T00:53:27;6.80;76.50
38265;DHT22;24062;47.480;8.768;2023-04-03T00:55:56;6.80;76.30
38265;DHT22;24062;47.480;8.768;2023-04-03T00:58:31;6.80;76.30
38265;DHT22;24062;47.480;8.768;2023-04-03T01:01:05;6.70;76.30
38265;DHT22;24062;47.480;8.768;2023-04-03T01:03:33;6.60;76.40
38265;DHT22;24062;47.480;8.768;2023-04-03T01:06:00;6.50;76.80
38265;DHT22;24062;47.480;8.768;2023-04-03T01:08:27;6.50;77.10
38265;DHT22;24062;47.480;8.768;2023-04-03T01:10:54;6.50;77.10
38265;DHT22;24062;47.480;8.768;2023-04-03T01:13:24;6.50;77.30
38265;DHT22;24062;47.480;8.768;2023-04-03T01:15:54;6.50;77.10
38265;DHT22;24062;47.480;8.768;2023-04-03T01:18:22;6.60;77.50
38265;DHT22;24062;47.480;8.768;2023-04-03T01:21:19;6.60;77.50
38265;DHT22;24062;47.480;8.768;2023-04-03T01:24:04;6.70;77.50
38265;DHT22;24062;47.480;8.768;2023-04-03T01:26:33;6.60;77.20
38265;DHT22;24062;47.480;8.768;2023-04-03T01:29:01;6.50;76.90
38265;DHT22;24062;47.480;8.768;2023-04-03T01:31:41;6.50;77.40
38265;DHT22;24062;47.480;8.768;2023-04-03T01:34:09;6.40;76.90
38265;DHT22;24062;47.480;8.768;2023-04-03T01:36:36;6.40;77.40
38265;DHT22;24062;47.480;8.768;2023-04-03T01:39:03;6.40;77.30
38265;DHT22;24062;47.480;8.768;2023-04-03T01:41:30;6.30;76.90
38265;DHT22;24062;47.480;8.768;2023-04-03T01:43:57;6.20;76.90
38265;DHT22;24062;47.480;8.768;2023-04-03T01:46:25;6.10;77.20
38265;DHT22;24062;47.480;8.768;2023-04-03T01:48:53;6.00;77.40
38265;DHT22;24062;47.480;8.768;2023-04-03T01:51:20;6.00;77.40
38265;DHT22;24062;47.480;8.768;2023-04-03T01:53:47;5.90;77.80
38265;DHT22;24062;47.480;8.768;2023-04-03T01:56:14;5.90;77.90
38265;DHT22;24062;47.480;8.768;2023-04-03T01:58:41;5.90;77.90
38265;DHT22;24062;47.480;8.768;2023-04-03T02:01:08;5.90;78.10
38265;DHT22;24062;47.480;8.768;2023-04-03T02:03:35;6.00;77.80
38265;DHT22;24062;47.480;8.768;2023-04-03T02:06:03;5.90;77.70
38265;DHT22;24062;47.480;8.768;2023-04-03T02:08:30;5.90;77.70
38265;DHT22;24062;47.480;8.768;2023-04-03T02:10:57;5.80;77.70
38265;DHT22;24062;47.480;8.768;2023-04-03T02:13:24;5.70;77.80
38265;DHT22;24062;47.480;8.768;2023-04-03T02:15:51;5.70;78.10
38265;DHT22;24062;47.480;8.768;2023-04-03T02:18:18;5.60;78.10
38265;DHT22;24062;47.480;8.768;2023-04-03T02:20:46;5.50;78.30
38265;DHT22;24062;47.480;8.768;2023-04-03T02:23:15;5.50;79.00
38265;DHT22;24062;47.480;8.768;2023-04-03T02:25:42;5.40;78.80
38265;DHT22;24062;47.480;8.768;2023-04-03T02:28:09;5.40;78.80
38265;DHT22;24062;47.480;8.768;2023-04-03T02:30:36;5.30;79.20
38265;DHT22;24062;47.480;8.768;2023-04-03T02:33:02;5.40;79.40
38265;DHT22;24062;47.480;8.768;2023-04-03T02:35:29;5.30;79.30
38265;DHT22;24062;47.480;8.768;2023-04-03T02:37:56;5.30;79.60
38265;DHT22;24062;47.480;8.768;2023-04-03T02:40:25;5.40;80.50
38265;DHT22;24062;47.480;8.768;2023-04-03T02:42:52;5.40;79.70
38265;DHT22;24062;47.480;8.768;2023-04-03T02:45:18;5.50;79.60
38265;DHT22;24062;47.480;8.768;2023-04-03T02:47:45;5.50;79.10
38265;DHT22;24062;47.480;8.768;2023-04-03T02:50:12;5.30;78.70
38265;DHT22;24062;47.480;8.768;2023-04-03T02:52:40;5.20;79.00
38265;DHT22;24062;47.480;8.768;2023-04-03T02:55:07;5.30;79.20
38265;DHT22;24062;47.480;8.768;2023-04-03T02:57:36;5.20;79.00
38265;DHT22;24062;47.480;8.768;2023-04-03T03:00:03;5.20;79.00
38265;DHT22;24062;47.480;8.768;2023-04-03T03:02:30;5.20;79.50
38265;DHT22;24062;47.480;8.768;2023-04-03T03:04:57;5.10;78.50
38265;DHT22;24062;47.480;8.768;2023-04-03T03:07:24;5.10;78.70
38265;DHT22;24062;47.480;8.768;2023-04-03T03:09:51;5.00;78.20
38265;DHT22;24062;47.480;8.768;2023-04-03T03:12:18;5.00;78.40
38265;DHT22;24062;47.480;8.768;2023-04-03T03:14:48;4.90;78.40
38265;DHT22;24062;47.480;8.768;2023-04-03T03:17:15;4.90;78.50
38265;DHT22;24062;47.480;8.768;2023-04-03T03:19:43;4.90;78.40
38265;DHT22;24062;47.480;8.768;2023-04-03T03:22:11;4.90;78.00
38265;DHT22;24062;47.480;8.768;2023-04-03T03:24:38;4.90;77.60
38265;DHT22;24062;47.480;8.768;2023-04-03T03:27:05;4.90;77.80
38265;DHT22;24062;47.480;8.768;2023-04-03T03:29:32;4.90;77.50
38265;DHT22;24062;47.480;8.768;2023-04-03T03:32:00;4.90;78.10
38265;DHT22;24062;47.480;8.768;2023-04-03T03:34:27;4.90;77.60
38265;DHT22;24062;47.480;8.768;2023-04-03T03:36:54;4.80;76.90
38265;DHT22;24062;47.480;8.768;2023-04-03T03:39:21;4.80;77.20
38265;DHT22;24062;47.480;8.768;2023-04-03T03:41:48;4.80;77.60
38265;DHT22;24062;47.480;8.768;2023-04-03T03:44:15;4.80;77.90
38265;DHT22;24062;47.480;8.768;2023-04-03T03:46:42;4.80;77.70
38265;DHT22;24062;47.480;8.768;2023-04-03T03:49:10;4.80;77.10
38265;DHT22;24062;47.480;8.768;2023-04-03T03:51:38;4.80;76.90
38265;DHT22;24062;47.480;8.768;2023-04-03T03:54:05;4.70;76.40
38265;DHT22;24062;47.480;8.768;2023-04-03T03:56:34;4.70;76.90
38265;DHT22;24062;47.480;8.768;2023-04-03T03:59:02;4.70;76.90
38265;DHT22;24062;47.480;8.768;2023-04-03T04:01:29;4.70;77.00
38265;DHT22;24062;47.480;8.768;2023-04-03T04:03:56;4.70;76.30
38265;DHT22;24062;47.480;8.768;2023-04-03T04:06:24;4.60;76.30
38265;DHT22;24062;47.480;8.768;2023-04-03T04:08:51;4.60;77.00
38265;DHT22;24062;47.480;8.768;2023-04-03T04:11:19;4.60;76.90
38265;DHT22;24062;47.480;8.768;2023-04-03T04:13:47;4.70;76.60
38265;DHT22;24062;47.480;8.768;2023-04-03T04:16:14;4.60;76.30
38265;DHT22;24062;47.480;8.768;2023-04-03T04:18:41;4.60;76.30
38265;DHT22;24062;47.480;8.768;2023-04-03T04:21:08;4.50;76.10
38265;DHT22;24062;47.480;8.768;2023-04-03T04:23:36;4.50;75.90
38265;DHT22;24062;47.480;8.768;2023-04-03T04:26:03;4.50;75.90
38265;DHT22;24062;47.480;8.768;2023-04-03T04:28:30;4.40;76.40
38265;DHT22;24062;47.480;8.768;2023-04-03T04:30:57;4.50;76.70
38265;DHT22;24062;47.480;8.768;2023-04-03T04:33:24;4.50;76.20
38265;DHT22;24062;47.480;8.768;2023-04-03T04:35:51;4.50;75.50
38265;DHT22;24062;47.480;8.768;2023-04-03T04:38:18;4.50;76.20
38265;DHT22;24062;47.480;8.768;2023-04-03T04:40:47;4.60;75.70
38265;DHT22;24062;47.480;8.768;2023-04-03T04:43:14;4.50;75.20
38265;DHT22;24062;47.480;8.768;2023-04-03T04:45:41;4.40;75.30
38265;DHT22;24062;47.480;8.768;2023-04-03T04:48:08;4.50;75.60
38265;DHT22;24062;47.480;8.768;2023-04-03T04:50:35;4.40;75.30
38265;DHT22;24062;47.480;8.768;2023-04-03T04:53:02;4.40;75.30
38265;DHT22;24062;47.480;8.768;2023-04-03T04:55:29;4.40;75.60
38265;DHT22;24062;47.480;8.768;2023-04-03T04:57:58;4.50;75.90
38265;DHT22;24062;47.480;8.768;2023-04-03T05:00:25;4.50;75.30
38265;DHT22;24062;47.480;8.768;2023-04-03T05:02:52;4.50;75.00
38265;DHT22;24062;47.480;8.768;2023-04-03T05:05:19;4.40;73.70
38265;DHT22;24062;47.480;8.768;2023-04-03T05:07:46;4.30;73.60
38265;DHT22;24062;47.480;8.768;2023-04-03T05:10:13;4.20;73.10
38265;DHT22;24062;47.480;8.768;2023-04-03T05:12:39;4.10;72.60
38265;DHT22;24062;47.480;8.768;2023-04-03T05:15:09;4.10;72.80
38265;DHT22;24062;47.480;8.768;2023-04-03T05:17:36;4.10;72.80
38265;DHT22;24062;47.480;8.768;2023-04-03T05:20:03;4.10;72.30
38265;DHT22;24062;47.480;8.768;2023-04-03T05:22:31;4.00;71.60
38265;DHT22;24062;47.480;8.768;2023-04-03T05:24:58;4.00;72.20
38265;DHT22;24062;47.480;8.768;2023-04-03T05:27:25;4.00;72.20
38265;DHT22;24062;47.480;8.768;2023-04-03T05:29:54;4.10;72.10
38265;DHT22;24062;47.480;8.768;2023-04-03T05:32:23;4.10;71.30
38265;DHT22;24062;47.480;8.768;2023-04-03T05:34:50;4.10;71.70
38265;DHT22;24062;47.480;8.768;2023-04-03T05:37:18;4.10;70.60
38265;DHT22;24062;47.480;8.768;2023-04-03T05:39:45;4.20;71.10
38265;DHT22;24062;47.480;8.768;2023-04-03T05:42:12;4.20;71.00
38265;DHT22;24062;47.480;8.768;2023-04-03T05:44:40;4.20;69.60
38265;DHT22;24062;47.480;8.768;2023-04-03T05:47:07;4.10;69.20
38265;DHT22;24062;47.480;8.768;2023-04-03T05:49:35;4.10;69.50
38265;DHT22;24062;47.480;8.768;2023-04-03T05:52:06;4.10;69.90
38265;DHT22;24062;47.480;8.768;2023-04-03T05:54:33;4.20;70.60
38265;DHT22;24062;47.480;8.768;2023-04-03T05:57:00;4.30;70.80
38265;DHT22;24062;47.480;8.768;2023-04-03T05:59:27;4.50;70.60
38265;DHT22;24062;47.480;8.768;2023-04-03T06:01:54;4.60;70.30
38265;DHT22;24062;47.480;8.768;2023-04-03T06:04:21;4.60;69.50
38265;DHT22;24062;47.480;8.768;2023-04-03T06:06:51;4.60;69.20
38265;DHT22;24062;47.480;8.768;2023-04-03T06:09:19;4.60;68.90
38265;DHT22;24062;47.480;8.768;2023-04-03T06:11:46;4.60;69.20
38265;DHT22;24062;47.480;8.768;2023-04-03T06:14:13;4.60;68.90
38265;DHT22;24062;47.480;8.768;2023-04-03T06:16:40;4.70;68.90
38265;DHT22;24062;47.480;8.768;2023-04-03T06:19:08;4.70;68.60
38265;DHT22;24062;47.480;8.768;2023-04-03T06:21:35;4.70;68.50
38265;DHT22;24062;47.480;8.768;2023-04-03T06:24:04;4.70;67.50
38265;DHT22;24062;47.480;8.768;2023-04-03T06:26:32;4.70;67.00
38265;DHT22;24062;47.480;8.768;2023-04-03T06:28:59;4.70;68.20
38265;DHT22;24062;47.480;8.768;2023-04-03T06:31:27;4.80;68.40
38265;DHT22;24062;47.480;8.768;2023-04-03T06:33:54;4.90;67.70
38265;DHT22;24062;47.480;8.768;2023-04-03T06:36:21;4.90;67.60
38265;DHT22;24062;47.480;8.768;2023-04-03T06:38:48;5.00;67.70
38265;DHT22;24062;47.480;8.768;2023-04-03T06:41:17;5.10;67.30
38265;DHT22;24062;47.480;8.768;2023-04-03T06:43:44;5.10;67.50
38265;DHT22;24062;47.480;8.768;2023-04-03T06:46:14;5.10;66.90
38265;DHT22;24062;47.480;8.768;2023-04-03T06:48:42;5.10;67.10
38265;DHT22;24062;47.480;8.768;2023-04-03T06:51:17;5.30;67.50
38265;DHT22;24062;47.480;8.768;2023-04-03T06:53:46;5.50;67.90
38265;DHT22;24062;47.480;8.768;2023-04-03T06:56:13;5.70;66.50
38265;DHT22;24062;47.480;8.768;2023-04-03T06:58:41;5.60;65.40
38265;DHT22;24062;47.480;8.768;2023-04-03T07:01:09;5.50;65.00
38265;DHT22;24062;47.480;8.768;2023-04-03T07:03:36;5.60;66.00
38265;DHT22;24062;47.480;8.768;2023-04-03T07:06:03;5.70;65.40
38265;DHT22;24062;47.480;8.768;2023-04-03T07:08:31;5.60;64.80
38265;DHT22;24062;47.480;8.768;2023-04-03T07:10:58;5.60;64.30
38265;DHT22;24062;47.480;8.768;2023-04-03T07:13:26;5.50;64.00
38265;DHT22;24062;47.480;8.768;2023-04-03T07:15:54;5.50;64.10
38265;DHT22;24062;47.480;8.768;2023-04-03T07:18:22;5.50;64.10
38265;DHT22;24062;47.480;8.768;2023-04-03T07:20:49;5.60;63.90
38265;DHT22;24062;47.480;8.768;2023-04-03T07:23:16;5.80;64.70
38265;DHT22;24062;47.480;8.768;2023-04-03T07:25:44;5.90;64.60
38265;DHT22;24062;47.480;8.768;2023-04-03T07:28:11;6.10;64.90
38265;DHT22;24062;47.480;8.768;2023-04-03T07:30:49;6.20;64.10
38265;DHT22;24062;47.480;8.768;2023-04-03T07:33:20;6.30;63.30
38265;DHT22;24062;47.480;8.768;2023-04-03T07:35:47;6.20;62.70
38265;DHT22;24062;47.480;8.768;2023-04-03T07:38:14;6.30;63.10
38265;DHT22;24062;47.480;8.768;2023-04-03T07:40:46;6.30;62.50
38265;DHT22;24062;47.480;8.768;2023-04-03T07:43:13;6.30;61.80
38265;DHT22;24062;47.480;8.768;2023-04-03T07:45:41;6.30;62.80
38265;DHT22;24062;47.480;8.768;2023-04-03T07:48:08;6.30;62.80
38265;DHT22;24062;47.480;8.768;2023-04-03T07:50:39;6.40;62.00
38265;DHT22;24062;47.480;8.768;2023-04-03T07:53:06;6.50;62.60
38265;DHT22;24062;47.480;8.768;2023-04-03T07:55:33;6.60;62.20
38265;DHT22;24062;47.480;8.768;2023-04-03T07:58:06;6.80;62.40
38265;DHT22;24062;47.480;8.768;2023-04-03T08:00:33;6.90;61.10
38265;DHT22;24062;47.480;8.768;2023-04-03T08:03:00;6.90;61.70
38265;DHT22;24062;47.480;8.768;2023-04-03T08:05:27;7.00;62.00
38265;DHT22;24062;47.480;8.768;2023-04-03T08:07:55;7.10;61.20
38265;DHT22;24062;47.480;8.768;2023-04-03T08:10:22;7.10;61.10
38265;DHT22;24062;47.480;8.768;2023-04-03T08:12:49;7.10;60.30
38265;DHT22;24062;47.480;8.768;2023-04-03T08:15:17;7.00;59.80
38265;DHT22;24062;47.480;8.768;2023-04-03T08:17:44;7.00;59.80
38265;DHT22;24062;47.480;8.768;2023-04-03T08:20:11;6.90;61.30
38265;DHT22;24062;47.480;8.768;2023-04-03T08:22:38;7.00;61.30
38265;DHT22;24062;47.480;8.768;2023-04-03T08:25:07;7.20;61.00
38265;DHT22;24062;47.480;8.768;2023-04-03T08:27:34;7.30;60.70
38265;DHT22;24062;47.480;8.768;2023-04-03T08:30:01;7.30;60.20
38265;DHT22;24062;47.480;8.768;2023-04-03T08:32:29;7.30;60.60
38265;DHT22;24062;47.480;8.768;2023-04-03T08:34:56;7.40;60.60
38265;DHT22;24062;47.480;8.768;2023-04-03T08:37:23;7.40;60.00
38265;DHT22;24062;47.480;8.768;2023-04-03T08:39:50;7.30;59.50
38265;DHT22;24062;47.480;8.768;2023-04-03T08:42:35;7.30;60.30
38265;DHT22;24062;47.480;8.768;2023-04-03T08:45:09;7.20;59.80
38265;DHT22;24062;47.480;8.768;2023-04-03T08:47:40;7.30;60.90
38265;DHT22;24062;47.480;8.768;2023-04-03T08:50:13;7.40;60.60
38265;DHT22;24062;47.480;8.768;2023-04-03T08:52:44;7.60;60.30
38265;DHT22;24062;47.480;8.768;2023-04-03T08:55:20;7.70;60.50
38265;DHT22;24062;47.480;8.768;2023-04-03T08:57:53;7.70;59.80
38265;DHT22;24062;47.480;8.768;2023-04-03T09:00:25;7.70;59.70
38265;DHT22;24062;47.480;8.768;2023-04-03T09:02:55;7.60;59.30
38265;DHT22;24062;47.480;8.768;2023-04-03T09:05:32;7.50;59.40
38265;DHT22;24062;47.480;8.768;2023-04-03T09:08:05;7.70;59.70
38265;DHT22;24062;47.480;8.768;2023-04-03T09:10:34;7.70;59.40
38265;DHT22;24062;47.480;8.768;2023-04-03T09:13:08;7.80;59.30
38265;DHT22;24062;47.480;8.768;2023-04-03T09:15:37;7.80;59.00
38265;DHT22;24062;47.480;8.768;2023-04-03T09:18:06;7.80;59.40
38265;DHT22;24062;47.480;8.768;2023-04-03T09:20:46;7.90;59.10
38265;DHT22;24062;47.480;8.768;2023-04-03T09:23:21;7.70;58.90
38265;DHT22;24062;47.480;8.768;2023-04-03T09:25:51;7.60;58.60
38265;DHT22;24062;47.480;8.768;2023-04-03T09:28:21;7.50;59.10
38265;DHT22;24062;47.480;8.768;2023-04-03T09:30:48;7.50;59.10
38265;DHT22;24062;47.480;8.768;2023-04-03T09:33:16;7.50;58.50
38265;DHT22;24062;47.480;8.768;2023-04-03T09:35:43;7.40;58.70
38265;DHT22;24062;47.480;8.768;2023-04-03T09:38:21;7.50;59.40
38265;DHT22;24062;47.480;8.768;2023-04-03T09:40:50;7.60;59.70
38265;DHT22;24062;47.480;8.768;2023-04-03T09:43:28;7.80;59.50
38265;DHT22;24062;47.480;8.768;2023-04-03T09:46:16;7.80;59.60
38265;DHT22;24062;47.480;8.768;2023-04-03T09:48:51;8.00;59.30
38265;DHT22;24062;47.480;8.768;2023-04-03T09:51:18;8.20;59.80
38265;DHT22;24062;47.480;8.768;2023-04-03T09:53:45;8.30;58.40
38265;DHT22;24062;47.480;8.768;2023-04-03T09:56:20;8.30;58.90
38265;DHT22;24062;47.480;8.768;2023-04-03T09:58:51;8.50;59.60
38265;DHT22;24062;47.480;8.768;2023-04-03T10:01:25;8.70;59.30
38265;DHT22;24062;47.480;8.768;2023-04-03T10:04:08;8.70;58.50
38265;DHT22;24062;47.480;8.768;2023-04-03T10:06:37;8.70;58.40
38265;DHT22;24062;47.480;8.768;2023-04-03T10:09:17;8.70;58.50
38265;DHT22;24062;47.480;8.768;2023-04-03T10:11:59;8.70;58.30
38265;DHT22;24062;47.480;8.768;2023-04-03T10:14:29;8.50;58.10
38265;DHT22;24062;47.480;8.768;2023-04-03T10:17:02;8.40;58.00
38265;DHT22;24062;47.480;8.768;2023-04-03T10:19:36;8.40;58.10
38265;DHT22;24062;47.480;8.768;2023-04-03T10:22:15;8.30;57.80
38265;DHT22;24062;47.480;8.768;2023-04-03T10:24:50;8.20;57.90
38265;DHT22;24062;47.480;8.768;2023-04-03T10:27:26;8.10;57.70
38265;DHT22;24062;47.480;8.768;2023-04-03T10:30:01;8.10;57.70
38265;DHT22;24062;47.480;8.768;2023-04-03T10:32:44;8.40;58.90
38265;DHT22;24062;47.480;8.768;2023-04-03T10:35:30;8.80;58.50
38265;DHT22;24062;47.480;8.768;2023-04-03T10:38:04;8.90;57.70
38265;DHT22;24062;47.480;8.768;2023-04-03T10:40:35;8.70;57.30
38265;DHT22;24062;47.480;8.768;2023-04-03T10:43:09;8.50;57.40
38265;DHT22;24062;47.480;8.768;2023-04-03T10:45:51;8.40;57.50
38265;DHT22;24062;47.480;8.768;2023-04-03T10:48:30;8.40;57.50
38265;DHT22;24062;47.480;8.768;2023-04-03T10:51:05;8.40;57.90
38265;DHT22;24062;47.480;8.768;2023-04-03T10:53:39;8.50;57.40
38265;DHT22;24062;47.480;8.768;2023-04-03T10:56:14;8.40;57.60
38265;DHT22;24062;47.480;8.768;2023-04-03T10:58:44;8.40;58.00
38265;DHT22;24062;47.480;8.768;2023-04-03T11:01:16;8.50;58.30
38265;DHT22;24062;47.480;8.768;2023-04-03T11:03:47;8.50;57.50
38265;DHT22;24062;47.480;8.768;2023-04-03T11:06:18;8.50;57.40
38265;DHT22;24062;47.480;8.768;2023-04-03T11:08:49;8.30;57.50
38265;DHT22;24062;47.480;8.768;2023-04-03T11:11:24;8.30;57.80
38265;DHT22;24062;47.480;8.768;2023-04-03T11:13:56;8.20;57.20
38265;DHT22;24062;47.480;8.768;2023-04-03T11:16:28;8.20;57.80
38265;DHT22;24062;47.480;8.768;2023-04-03T11:18:59;8.30;58.00
38265;DHT22;24062;47.480;8.768;2023-04-03T11:21:29;8.30;58.00
38265;DHT22;24062;47.480;8.768;2023-04-03T11:24:02;8.30;57.90
38265;DHT22;24062;47.480;8.768;2023-04-03T11:26:35;8.30;57.70
38265;DHT22;24062;47.480;8.768;2023-04-03T11:29:08;8.50;58.00
38265;DHT22;24062;47.480;8.768;2023-04-03T11:31:48;8.70;58.40
38265;DHT22;24062;47.480;8.768;2023-04-03T11:34:29;9.00;58.30
38265;DHT22;24062;47.480;8.768;2023-04-03T11:37:05;9.20;57.60
38265;DHT22;24062;47.480;8.768;2023-04-03T11:39:38;8.90;56.70
38265;DHT22;24062;47.480;8.768;2023-04-03T11:42:15;8.70;57.00
38265;DHT22;24062;47.480;8.768;2023-04-03T11:44:42;8.50;57.00
38265;DHT22;24062;47.480;8.768;2023-04-03T11:47:11;8.50;57.30
38265;DHT22;24062;47.480;8.768;2023-04-03T11:49:59;8.60;57.70
38265;DHT22;24062;47.480;8.768;2023-04-03T11:53:01;8.80;57.80
38265;DHT22;24062;47.480;8.768;2023-04-03T11:55:56;9.00;57.70
38265;DHT22;24062;47.480;8.768;2023-04-03T11:58:24;9.10;57.20
38265;DHT22;24062;47.480;8.768;2023-04-03T12:01:12;9.20;57.60
38265;DHT22;24062;47.480;8.768;2023-04-03T12:04:10;9.30;57.30
38265;DHT22;24062;47.480;8.768;2023-04-03T12:10:02;9.40;57.10
38265;DHT22;24062;47.480;8.768;2023-04-03T12:12:40;9.40;56.60
38265;DHT22;24062;47.480;8.768;2023-04-03T12:15:23;9.50;56.90
38265;DHT22;24062;47.480;8.768;2023-04-03T12:17:51;9.40;56.00
38265;DHT22;24062;47.480;8.768;2023-04-03T12:20:58;9.20;55.60
38265;DHT22;24062;47.480;8.768;2023-04-03T12:23:30;9.00;56.00
38265;DHT22;24062;47.480;8.768;2023-04-03T12:26:18;9.10;55.90
38265;DHT22;24062;47.480;8.768;2023-04-03T12:28:48;9.30;56.30
38265;DHT22;24062;47.480;8.768;2023-04-03T12:31:16;9.50;56.40
38265;DHT22;24062;47.480;8.768;2023-04-03T12:34:05;9.80;56.70
38265;DHT22;24062;47.480;8.768;2023-04-03T12:36:45;10.10;55.20
38265;DHT22;24062;47.480;8.768;2023-04-03T12:39:45;10.20;54.30
38265;DHT22;24062;47.480;8.768;2023-04-03T12:42:32;10.30;55.20
38265;DHT22;24062;47.480;8.768;2023-04-03T12:45:10;10.50;54.90
38265;DHT22;24062;47.480;8.768;2023-04-03T12:47:43;10.60;54.60
38265;DHT22;24062;47.480;8.768;2023-04-03T12:50:23;10.80;54.40
38265;DHT22;24062;47.480;8.768;2023-04-03T12:52:56;10.70;53.90
38265;DHT22;24062;47.480;8.768;2023-04-03T12:55:24;10.50;53.60
38265;DHT22;24062;47.480;8.768;2023-04-03T12:57:52;10.10;52.90
38265;DHT22;24062;47.480;8.768;2023-04-03T13:00:28;9.90;53.80
38265;DHT22;24062;47.480;8.768;2023-04-03T13:02:55;9.50;53.60
38265;DHT22;24062;47.480;8.768;2023-04-03T13:05:22;9.10;53.40
38265;DHT22;24062;47.480;8.768;2023-04-03T13:07:54;8.80;54.10
38265;DHT22;24062;47.480;8.768;2023-04-03T13:10:23;8.70;54.70
38265;DHT22;24062;47.480;8.768;2023-04-03T13:12:52;8.90;55.10
38265;DHT22;24062;47.480;8.768;2023-04-03T13:15:22;9.10;54.90
38265;DHT22;24062;47.480;8.768;2023-04-03T13:17:50;9.30;55.20
38265;DHT22;24062;47.480;8.768;2023-04-03T13:20:21;9.60;55.30
38265;DHT22;24062;47.480;8.768;2023-04-03T13:22:55;9.80;55.20
38265;DHT22;24062;47.480;8.768;2023-04-03T13:25:24;10.00;54.10
38265;DHT22;24062;47.480;8.768;2023-04-03T13:27:52;9.90;54.30
38265;DHT22;24062;47.480;8.768;2023-04-03T13:30:27;9.80;53.60
38265;DHT22;24062;47.480;8.768;2023-04-03T13:32:56;9.40;53.60
38265;DHT22;24062;47.480;8.768;2023-04-03T13:35:35;9.20;53.40
38265;DHT22;24062;47.480;8.768;2023-04-03T13:38:20;9.10;53.80
38265;DHT22;24062;47.480;8.768;2023-04-03T13:40:49;8.90;53.70
38265;DHT22;24062;47.480;8.768;2023-04-03T13:43:19;8.80;53.80
38265;DHT22;24062;47.480;8.768;2023-04-03T13:46:01;8.50;53.00
38265;DHT22;24062;47.480;8.768;2023-04-03T13:48:36;8.30;53.30
38265;DHT22;24062;47.480;8.768;2023-04-03T13:51:05;8.10;53.50
38265;DHT22;24062;47.480;8.768;2023-04-03T13:53:43;8.00;53.30
38265;DHT22;24062;47.480;8.768;2023-04-03T13:56:18;7.90;53.50
38265;DHT22;24062;47.480;8.768;2023-04-03T13:58:57;7.90;54.30
38265;DHT22;24062;47.480;8.768;2023-04-03T14:01:32;8.00;53.80
38265;DHT22;24062;47.480;8.768;2023-04-03T14:04:01;8.00;54.50
38265;DHT22;24062;47.480;8.768;2023-04-03T14:06:37;8.00;53.60
38265;DHT22;24062;47.480;8.768;2023-04-03T14:09:05;8.10;54.10
38265;DHT22;24062;47.480;8.768;2023-04-03T14:11:34;8.20;54.10
38265;DHT22;24062;47.480;8.768;2023-04-03T14:14:05;8.30;53.80
38265;DHT22;24062;47.480;8.768;2023-04-03T14:16:35;8.30;53.50
38265;DHT22;24062;47.480;8.768;2023-04-03T14:19:03;8.20;53.40
38265;DHT22;24062;47.480;8.768;2023-04-03T14:21:30;8.30;53.80
38265;DHT22;24062;47.480;8.768;2023-04-03T14:23:58;8.40;53.40
38265;DHT22;24062;47.480;8.768;2023-04-03T14:26:28;8.40;53.40
38265;DHT22;24062;47.480;8.768;2023-04-03T14:28:55;8.50;53.30
38265;DHT22;24062;47.480;8.768;2023-04-03T14:31:23;8.50;53.20
38265;DHT22;24062;47.480;8.768;2023-04-03T14:33:50;8.60;53.20
38265;DHT22;24062;47.480;8.768;2023-04-03T14:36:20;8.60;53.10
38265;DHT22;24062;47.480;8.768;2023-04-03T14:38:49;8.60;52.90
38265;DHT22;24062;47.480;8.768;2023-04-03T14:41:18;8.60;52.90
38265;DHT22;24062;47.480;8.768;2023-04-03T14:43:47;8.60;52.50
38265;DHT22;24062;47.480;8.768;2023-04-03T14:46:16;8.50;52.00
38265;DHT22;24062;47.480;8.768;2023-04-03T14:48:44;8.40;52.10
38265;DHT22;24062;47.480;8.768;2023-04-03T14:51:12;8.30;52.70
38265;DHT22;24062;47.480;8.768;2023-04-03T14:53:41;8.40;52.50
38265;DHT22;24062;47.480;8.768;2023-04-03T14:56:14;8.50;52.80
38265;DHT22;24062;47.480;8.768;2023-04-03T14:58:42;8.60;52.50
38265;DHT22;24062;47.480;8.768;2023-04-03T15:01:12;8.70;52.30
38265;DHT22;24062;47.480;8.768;2023-04-03T15:03:39;8.60;52.00
38265;DHT22;24062;47.480;8.768;2023-04-03T15:06:09;8.50;51.70
38265;DHT22;24062;47.480;8.768;2023-04-03T15:08:36;8.40;52.20
38265;DHT22;24062;47.480;8.768;2023-04-03T15:11:03;8.40;52.50
38265;DHT22;24062;47.480;8.768;2023-04-03T15:13:30;8.30;52.20
38265;DHT22;24062;47.480;8.768;2023-04-03T15:15:57;8.20;52.00
38265;DHT22;24062;47.480;8.768;2023-04-03T15:18:27;8.20;52.00
38265;DHT22;24062;47.480;8.768;2023-04-03T15:20:55;8.00;51.90
38265;DHT22;24062;47.480;8.768;2023-04-03T15:23:22;7.90;52.10
38265;DHT22;24062;47.480;8.768;2023-04-03T15:25:52;7.70;52.30
38265;DHT22;24062;47.480;8.768;2023-04-03T15:28:25;7.70;52.20
38265;DHT22;24062;47.480;8.768;2023-04-03T15:30:53;7.60;52.40
38265;DHT22;24062;47.480;8.768;2023-04-03T15:33:20;7.50;52.60
38265;DHT22;24062;47.480;8.768;2023-04-03T15:35:49;7.50;52.60
38265;DHT22;24062;47.480;8.768;2023-04-03T15:38:16;7.40;52.60
38265;DHT22;24062;47.480;8.768;2023-04-03T15:40:43;7.40;52.60
38265;DHT22;24062;47.480;8.768;2023-04-03T15:43:13;7.50;52.90
38265;DHT22;24062;47.480;8.768;2023-04-03T15:45:40;7.50;52.70
38265;DHT22;24062;47.480;8.768;2023-04-03T15:48:08;7.50;52.80
38265;DHT22;24062;47.480;8.768;2023-04-03T15:50:35;7.50;52.80
38265;DHT22;24062;47.480;8.768;2023-04-03T15:53:04;7.40;52.70
38265;DHT22;24062;47.480;8.768;2023-04-03T15:55:34;7.50;52.90
38265;DHT22;24062;47.480;8.768;2023-04-03T15:58:01;7.50;53.60
38265;DHT22;24062;47.480;8.768;2023-04-03T16:00:28;7.60;53.00
38265;DHT22;24062;47.480;8.768;2023-04-03T16:02:59;7.70;53.10
38265;DHT22;24062;47.480;8.768;2023-04-03T16:05:29;7.70;52.50
38265;DHT22;24062;47.480;8.768;2023-04-03T16:07:57;7.60;52.10